createdAt,value
2023-03-06T00:00:26.680Z,99823.91
2023-03-06T00:02:53.869Z,99814.22
2023-03-06T00:05:20.649Z,99816.97
2023-03-06T00:07:47.350Z,99816.09
2023-03-06T00:10:16.847Z,99824.84
2023-03-06T00:12:43.676Z,99814.97
2023-03-06T00:15:11.572Z,99809.69
2023-03-06T00:17:38.524Z,99814.97
2023-03-06T00:20:06.205Z,99810.53
2023-03-06T00:22:33.099Z,99810.44
2023-03-06T00:25:00.627Z,99811.38
2023-03-06T00:27:27.202Z,99810.44
2023-03-06T00:29:57.753Z,99801.72
2023-03-06T00:32:25.245Z,99802.47
2023-03-06T00:34:53.602Z,99800.69
2023-03-06T00:37:21.505Z,99798.03
2023-03-06T00:39:49.519Z,99796.13
2023-03-06T00:42:17.845Z,99789.03
2023-03-06T00:44:45.216Z,99789.97
2023-03-06T00:47:12.529Z,99802.28
2023-03-06T00:49:39.514Z,99800.59
2023-03-06T00:52:06.088Z,99786.47
2023-03-06T00:54:32.641Z,99784.75
2023-03-06T00:56:59.289Z,99787.50
2023-03-06T00:59:27.574Z,99778.72
2023-03-06T01:01:54.993Z,99780.41
2023-03-06T01:04:21.863Z,99779.53
2023-03-06T01:06:48.658Z,99777.84
2023-03-06T01:09:15.458Z,99768.75
2023-03-06T01:11:42.032Z,99771.28
2023-03-06T01:14:08.617Z,99769.41
2023-03-06T01:16:35.369Z,99766.75
2023-03-06T01:19:02.037Z,99771.28
2023-03-06T01:21:28.770Z,99768.75
2023-03-06T01:23:55.413Z,99771.41
2023-03-06T01:26:22.092Z,99765.31
2023-03-06T01:28:48.650Z,99768.84
2023-03-06T01:31:15.395Z,99765.25
2023-03-06T01:33:41.975Z,99767.97
2023-03-06T01:36:11.334Z,99757.28
2023-03-06T01:38:38.171Z,99751.09
2023-03-06T01:41:05.210Z,99756.31
2023-03-06T01:43:34.535Z,99756.41
2023-03-06T01:46:33.777Z,99749.41
2023-03-06T01:49:12.872Z,99747.72
2023-03-06T01:51:57.644Z,99748.75
2023-03-06T01:54:41.576Z,99745.53
2023-03-06T01:57:19.284Z,99748.38
2023-03-06T01:59:53.010Z,99745.81
2023-03-06T02:02:20.667Z,99744.13
2023-03-06T02:04:48.118Z,99746.69
2023-03-06T02:07:17.122Z,99744.78
2023-03-06T02:09:43.713Z,99746.47
2023-03-06T02:12:14.402Z,99746.47
2023-03-06T02:14:42.181Z,99748.47
2023-03-06T02:17:11.735Z,99742.50
2023-03-06T02:19:44.200Z,99744.13
2023-03-06T02:22:11.297Z,99745.06
2023-03-06T02:24:51.725Z,99747.59
2023-03-06T02:27:19.513Z,99743.00
2023-03-06T02:29:46.091Z,99731.31
2023-03-06T02:32:12.769Z,99739.19
2023-03-06T02:34:39.289Z,99739.97
2023-03-06T02:37:11.013Z,99733.78
2023-03-06T02:39:44.961Z,99735.56
2023-03-06T02:42:21.110Z,99742.63
2023-03-06T02:44:48.906Z,99738.34
2023-03-06T02:47:15.488Z,99741.00
2023-03-06T02:49:42.039Z,99736.63
2023-03-06T02:52:08.662Z,99738.34
2023-03-06T02:54:35.222Z,99744.41
2023-03-06T02:57:01.772Z,99743.53
2023-03-06T02:59:28.407Z,99742.63
2023-03-06T03:01:54.954Z,99741.84
2023-03-06T03:04:21.593Z,99737.38
2023-03-06T03:06:48.188Z,99734.44
2023-03-06T03:09:14.796Z,99740.41
2023-03-06T03:11:41.332Z,99730.75
2023-03-06T03:14:07.996Z,99732.53
2023-03-06T03:16:34.669Z,99727.34
2023-03-06T03:19:01.215Z,99729.06
2023-03-06T03:21:27.744Z,99731.50
2023-03-06T03:23:54.297Z,99734.94
2023-03-06T03:26:22.040Z,99724.31
2023-03-06T03:28:48.680Z,99724.41
2023-03-06T03:31:15.336Z,99731.41
2023-03-06T03:33:42.045Z,99735.00
2023-03-06T03:36:08.929Z,99734.16
2023-03-06T03:38:35.772Z,99725.16
2023-03-06T03:41:02.780Z,99719.97
2023-03-06T03:43:29.379Z,99723.38
2023-03-06T03:45:55.954Z,99718.06
2023-03-06T03:48:22.597Z,99714.44
2023-03-06T03:50:49.167Z,99718.78
2023-03-06T03:53:15.770Z,99717.09
2023-03-06T03:55:42.370Z,99716.34
2023-03-06T03:58:08.934Z,99720.78
2023-03-06T04:00:35.490Z,99722.63
2023-03-06T04:03:02.040Z,99712.84
2023-03-06T04:05:28.655Z,99720.78
2023-03-06T04:07:55.297Z,99715.41
2023-03-06T04:10:21.911Z,99715.31
2023-03-06T04:12:48.498Z,99721.44
2023-03-06T04:15:15.069Z,99712.53
2023-03-06T04:17:41.652Z,99716.81
2023-03-06T04:20:09.061Z,99712.34
2023-03-06T04:22:35.616Z,99726.59
2023-03-06T04:25:02.184Z,99726.59
2023-03-06T04:27:28.734Z,99718.53
2023-03-06T04:29:56.409Z,99716.81
2023-03-06T04:32:24.057Z,99710.44
2023-03-06T04:34:50.905Z,99712.19
2023-03-06T04:37:22.696Z,99712.19
2023-03-06T04:39:49.681Z,99712.34
2023-03-06T04:42:16.305Z,99713.97
2023-03-06T04:44:42.879Z,99717.38
2023-03-06T04:47:09.576Z,99709.31
2023-03-06T04:49:36.484Z,99711.88
2023-03-06T04:52:03.789Z,99709.00
2023-03-06T04:54:30.398Z,99706.28
2023-03-06T04:56:57.355Z,99709.97
2023-03-06T04:59:23.984Z,99701.44
2023-03-06T05:01:50.617Z,99702.31
2023-03-06T05:04:17.184Z,99705.72
2023-03-06T05:06:43.810Z,99709.13
2023-03-06T05:09:10.401Z,99713.38
2023-03-06T05:11:36.952Z,99707.13
2023-03-06T05:14:03.633Z,99704.34
2023-03-06T05:16:30.231Z,99706.09
2023-03-06T05:18:56.789Z,99715.75
2023-03-06T05:21:23.403Z,99705.03
2023-03-06T05:23:50.104Z,99708.44
2023-03-06T05:26:16.773Z,99709.28
2023-03-06T05:28:43.604Z,99704.81
2023-03-06T05:31:10.369Z,99701.22
2023-03-06T05:33:37.269Z,99710.78
2023-03-06T05:36:04.255Z,99700.38
2023-03-06T05:38:33.316Z,99706.53
2023-03-06T05:41:00.131Z,99708.22
2023-03-06T05:43:26.808Z,99707.19
2023-03-06T05:46:01.683Z,99709.84
2023-03-06T05:48:28.439Z,99708.91
2023-03-06T05:50:56.750Z,99717.63
2023-03-06T05:53:23.357Z,99711.25
2023-03-06T05:56:01.495Z,99704.91
2023-03-06T05:58:30.356Z,99715.31
2023-03-06T06:00:57.251Z,99717.00
2023-03-06T06:03:24.764Z,99711.59
2023-03-06T06:05:51.794Z,99712.25
2023-03-06T06:08:18.859Z,99712.38
2023-03-06T06:10:45.534Z,99708.75
2023-03-06T06:13:12.100Z,99712.06
2023-03-06T06:15:39.062Z,99707.50
2023-03-06T06:18:05.660Z,99709.88
2023-03-06T06:20:32.331Z,99716.66
2023-03-06T06:22:58.857Z,99726.25
2023-03-06T06:25:25.487Z,99723.41
2023-03-06T06:27:55.270Z,99716.25
2023-03-06T06:30:22.437Z,99728.59
2023-03-06T06:32:49.068Z,99728.72
2023-03-06T06:35:15.984Z,99732.19
2023-03-06T06:37:42.590Z,99733.06
2023-03-06T06:40:09.878Z,99732.09
2023-03-06T06:42:39.861Z,99731.16
2023-03-06T06:45:08.265Z,99727.34
2023-03-06T06:47:34.853Z,99725.25
2023-03-06T06:50:01.490Z,99719.53
2023-03-06T06:52:28.068Z,99723.69
2023-03-06T06:54:55.072Z,99719.84
2023-03-06T06:57:21.904Z,99713.38
2023-03-06T06:59:48.480Z,99718.50
2023-03-06T07:02:15.974Z,99715.44
2023-03-06T07:05:00.360Z,99720.44
2023-03-06T07:07:29.908Z,99722.03
2023-03-06T07:09:56.733Z,99733.41
2023-03-06T07:12:23.327Z,99736.06
2023-03-06T07:14:49.983Z,99732.44
2023-03-06T07:17:16.595Z,99731.28
2023-03-06T07:19:43.199Z,99737.06
2023-03-06T07:22:09.921Z,99738.53
2023-03-06T07:24:36.517Z,99741.81
2023-03-06T07:27:03.163Z,99742.59
2023-03-06T07:29:29.757Z,99744.94
2023-03-06T07:31:56.404Z,99747.50
2023-03-06T07:34:23.143Z,99738.56
2023-03-06T07:36:50.880Z,99740.88
2023-03-06T07:39:17.736Z,99743.34
2023-03-06T07:41:44.331Z,99746.84
2023-03-06T07:44:10.908Z,99738.66
2023-03-06T07:46:37.600Z,99744.63
2023-03-06T07:49:04.336Z,99737.81
2023-03-06T07:51:30.901Z,99743.78
2023-03-06T07:53:57.478Z,99750.06
2023-03-06T07:56:24.068Z,99750.16
2023-03-06T07:58:50.683Z,99746.31
2023-03-06T08:01:20.340Z,99752.38
2023-03-06T08:03:47.430Z,99752.19
2023-03-06T08:06:27.186Z,99750.06
2023-03-06T08:08:55.646Z,99756.34
2023-03-06T08:11:25.615Z,99765.06
2023-03-06T08:13:53.054Z,99765.78
2023-03-06T08:16:26.005Z,99760.91
2023-03-06T08:18:53.013Z,99763.78
2023-03-06T08:21:22.335Z,99750.88
2023-03-06T08:23:49.076Z,99756.84
2023-03-06T08:26:24.450Z,99760.03
2023-03-06T08:28:53.161Z,99755.03
2023-03-06T08:31:35.346Z,99747.16
2023-03-06T08:34:04.751Z,99742.53
2023-03-06T08:36:31.474Z,99741.75
2023-03-06T08:38:58.807Z,99733.09
2023-03-06T08:41:25.722Z,99732.81
2023-03-06T08:43:52.423Z,99738.25
2023-03-06T08:46:20.744Z,99734.47
2023-03-06T08:48:48.243Z,99740.25
2023-03-06T08:51:16.101Z,99732.41
2023-03-06T08:53:44.151Z,99731.69
2023-03-06T08:56:28.904Z,99724.28
2023-03-06T08:58:57.157Z,99731.56
2023-03-06T09:01:26.794Z,99726.19
2023-03-06T09:03:55.098Z,99727.25
2023-03-06T09:06:22.485Z,99719.03
2023-03-06T09:08:51.665Z,99716.88
2023-03-06T09:11:23.002Z,99713.34
2023-03-06T09:13:49.658Z,99715.38
2023-03-06T09:16:16.332Z,99702.69
2023-03-06T09:18:42.969Z,99704.97
2023-03-06T09:21:10.543Z,99702.28
2023-03-06T09:23:39.472Z,99709.22
2023-03-06T09:26:07.092Z,99698.97
2023-03-06T09:28:36.673Z,99695.81
2023-03-06T09:31:11.912Z,99682.38
2023-03-06T09:33:39.126Z,99686.06
2023-03-06T09:36:07.500Z,99688.09
2023-03-06T09:38:34.803Z,99676.13
2023-03-06T09:41:44.877Z,99687.56
2023-03-06T09:44:21.523Z,99682.63
2023-03-06T09:46:53.993Z,99686.50
2023-03-06T09:49:35.874Z,99686.31
2023-03-06T09:52:17.698Z,99682.09
2023-03-06T09:54:49.476Z,99680.81
2023-03-06T09:57:26.866Z,99682.19
2023-03-06T10:00:03.874Z,99684.78
2023-03-06T10:02:53.615Z,99669.22
2023-03-06T10:05:26.055Z,99677.16
2023-03-06T10:08:12.163Z,99673.91
2023-03-06T10:10:49.918Z,99665.84
2023-03-06T10:13:28.252Z,99665.41
2023-03-06T10:16:03.772Z,99661.72
2023-03-06T10:18:30.468Z,99672.13
2023-03-06T10:21:18.493Z,99666.31
2023-03-06T10:24:22.393Z,99674.47
2023-03-06T10:27:31.642Z,99665.09
2023-03-06T10:30:12.265Z,99661.41
2023-03-06T10:32:51.178Z,99662.06
2023-03-06T10:35:25.677Z,99662.91
2023-03-06T10:38:00.424Z,99664.53
2023-03-06T10:40:35.429Z,99656.19
2023-03-06T10:43:11.499Z,99649.44
2023-03-06T10:45:50.832Z,99641.94
2023-03-06T10:48:21.221Z,99632.75
2023-03-06T10:50:48.412Z,99640.22
2023-03-06T10:53:29.225Z,99627.16
2023-03-06T10:55:58.957Z,99626.03
2023-03-06T10:58:32.869Z,99620.56
2023-03-06T11:01:20.708Z,99614.94
2023-03-06T11:03:47.908Z,99608.59
2023-03-06T11:06:35.181Z,99601.63
2023-03-06T11:09:23.185Z,99598.41
2023-03-06T11:11:52.678Z,99589.16
2023-03-06T11:14:27.492Z,99586.78
2023-03-06T11:16:54.462Z,99581.03
2023-03-06T11:19:28.062Z,99567.63
2023-03-06T11:22:07.282Z,99564.16
2023-03-06T11:24:39.540Z,99559.94
2023-03-06T11:27:42.580Z,99555.16
2023-03-06T11:30:18.356Z,99551.91
2023-03-06T11:32:55.335Z,99548.41
2023-03-06T11:35:28.469Z,99536.16
2023-03-06T11:38:06.819Z,99533.72
2023-03-06T11:40:57.853Z,99518.78
2023-03-06T11:44:05.171Z,99510.06
2023-03-06T11:46:40.295Z,99500.63
2023-03-06T11:49:32.135Z,99492.16
2023-03-06T11:52:06.432Z,99495.94
2023-03-06T11:54:33.713Z,99494.56
2023-03-06T11:57:06.653Z,99483.41
2023-03-06T11:59:38.983Z,99476.50
2023-03-06T12:02:14.626Z,99480.19
2023-03-06T12:05:09.110Z,99471.97
2023-03-06T12:07:46.545Z,99468.16
2023-03-06T12:10:16.040Z,99469.03
2023-03-06T12:13:10.264Z,99458.72
2023-03-06T12:15:58.577Z,99459.72
2023-03-06T12:18:46.947Z,99452.50
2023-03-06T12:21:54.568Z,99449.81
2023-03-06T12:24:58.484Z,99446.44
2023-03-06T12:27:37.068Z,99455.47
2023-03-06T12:30:27.489Z,99457.41
2023-03-06T12:33:26.382Z,99443.59
2023-03-06T12:36:25.277Z,99441.47
2023-03-06T12:38:57.561Z,99447.13
2023-03-06T12:41:47.584Z,99446.84
2023-03-06T12:44:52.586Z,99441.47
2023-03-06T12:47:21.742Z,99446.53
2023-03-06T12:50:23.108Z,99446.41
2023-03-06T12:52:52.116Z,99444.72
2023-03-06T12:55:24.317Z,99439.06
2023-03-06T12:57:53.043Z,99431.63
2023-03-06T13:00:34.555Z,99436.97
2023-03-06T13:03:01.058Z,99433.06
2023-03-06T13:06:00.230Z,99427.28
2023-03-06T13:08:59.354Z,99424.44
2023-03-06T13:11:36.192Z,99417.00
2023-03-06T13:14:54.390Z,99421.50
2023-03-06T13:17:26.414Z,99417.41
2023-03-06T13:20:14.812Z,99409.69
2023-03-06T13:22:43.661Z,99407.41
2023-03-06T13:25:19.318Z,99404.72
2023-03-06T13:27:52.235Z,99398.13
2023-03-06T13:30:23.596Z,99401.50
2023-03-06T13:32:52.850Z,99392.34
2023-03-06T13:35:34.168Z,99392.78
2023-03-06T13:38:01.484Z,99391.63
2023-03-06T13:40:31.773Z,99393.75
2023-03-06T13:43:07.324Z,99388.66
2023-03-06T13:45:39.467Z,99384.75
2023-03-06T13:48:30.197Z,99385.59
2023-03-06T13:50:55.743Z,99380.66
2023-03-06T13:53:40.640Z,99377.00
2023-03-06T13:56:25.840Z,99381.50
2023-03-06T13:59:16.777Z,99370.22
2023-03-06T14:02:01.490Z,99374.31
2023-03-06T14:04:58.664Z,99369.22
2023-03-06T14:07:41.731Z,99364.31
2023-03-06T14:10:08.281Z,99362.63
2023-03-06T14:12:39.342Z,99357.28
2023-03-06T14:15:23.263Z,99362.75
2023-03-06T14:18:07.746Z,99351.63
2023-03-06T14:20:42.947Z,99364.69
2023-03-06T14:23:21.713Z,99363.00
2023-03-06T14:25:55.172Z,99361.63
2023-03-06T14:28:29.990Z,99363.88
2023-03-06T14:30:59.191Z,99366.81
2023-03-06T14:33:37.929Z,99366.81
2023-03-06T14:36:09.143Z,99363.13
2023-03-06T14:38:42.310Z,99362.88
2023-03-06T14:41:11.737Z,99362.00
2023-03-06T14:43:39.480Z,99358.19
2023-03-06T14:46:06.897Z,99366.88
2023-03-06T14:48:45.557Z,99355.03
2023-03-06T14:51:21.156Z,99356.41
2023-03-06T14:53:53.498Z,99354.84
2023-03-06T14:56:22.814Z,99354.72
2023-03-06T14:58:55.537Z,99350.06
2023-03-06T15:01:31.512Z,99340.66
2023-03-06T15:04:01.047Z,99331.09
2023-03-06T15:06:33.469Z,99340.22
2023-03-06T15:09:17.605Z,99338.53
2023-03-06T15:12:02.579Z,99344.13
2023-03-06T15:14:48.149Z,99343.69
2023-03-06T15:17:17.689Z,99343.00
2023-03-06T15:19:49.430Z,99337.63
2023-03-06T15:22:31.311Z,99336.41
2023-03-06T15:25:16.079Z,99337.50
2023-03-06T15:27:48.908Z,99332.28
2023-03-06T15:30:30.664Z,99336.34
2023-03-06T15:33:26.169Z,99341.09
2023-03-06T15:35:57.655Z,99331.66
2023-03-06T15:38:45.492Z,99335.88
2023-03-06T15:41:33.470Z,99334.59
2023-03-06T15:44:02.305Z,99334.13
2023-03-06T15:46:29.668Z,99334.78
2023-03-06T15:49:04.744Z,99336.06
2023-03-06T15:51:32.212Z,99332.06
2023-03-06T15:54:11.273Z,99335.72
2023-03-06T15:56:44.336Z,99334.88
2023-03-06T15:59:20.056Z,99327.84
2023-03-06T16:01:46.699Z,99339.06
2023-03-06T16:04:13.987Z,99341.25
2023-03-06T16:06:40.795Z,99342.66
2023-03-06T16:09:07.350Z,99349.78
2023-03-06T16:11:43.262Z,99343.16
2023-03-06T16:14:18.950Z,99340.28
2023-03-06T16:16:45.994Z,99344.22
2023-03-06T16:19:26.386Z,99341.53
2023-03-06T16:21:54.379Z,99346.53
2023-03-06T16:24:20.972Z,99333.84
2023-03-06T16:26:52.593Z,99335.06
2023-03-06T16:29:24.847Z,99337.13
2023-03-06T16:31:51.887Z,99339.72
2023-03-06T16:34:21.286Z,99350.78
2023-03-06T16:36:49.072Z,99353.09
2023-03-06T16:39:17.594Z,99351.81
2023-03-06T16:41:45.881Z,99361.88
2023-03-06T16:44:13.413Z,99362.00
2023-03-06T16:46:42.925Z,99369.28
2023-03-06T16:49:18.094Z,99359.09
2023-03-06T16:51:45.457Z,99371.47
2023-03-06T16:54:12.770Z,99356.59
2023-03-06T16:56:39.619Z,99371.97
2023-03-06T16:59:06.417Z,99373.91
2023-03-06T17:01:33.160Z,99365.19
2023-03-06T17:03:59.955Z,99368.25
2023-03-06T17:06:26.608Z,99370.03
2023-03-06T17:08:53.202Z,99356.59
2023-03-06T17:11:20.509Z,99362.91
2023-03-06T17:13:47.794Z,99370.03
2023-03-06T17:16:16.628Z,99375.50
2023-03-06T17:18:44.768Z,99390.41
2023-03-06T17:21:12.103Z,99375.50
2023-03-06T17:23:38.715Z,99374.53
2023-03-06T17:26:12.306Z,99368.47
2023-03-06T17:28:39.697Z,99369.56
2023-03-06T17:31:16.452Z,99374.91
2023-03-06T17:33:43.649Z,99377.44
2023-03-06T17:36:10.968Z,99371.84
2023-03-06T17:38:37.939Z,99377.19
2023-03-06T17:41:06.232Z,99367.75
2023-03-06T17:43:33.260Z,99364.50
2023-03-06T17:46:11.728Z,99366.78
2023-03-06T17:48:39.320Z,99365.94
2023-03-06T17:51:06.443Z,99373.09
2023-03-06T17:53:33.227Z,99365.59
2023-03-06T17:55:59.863Z,99366.91
2023-03-06T17:58:27.243Z,99368.75
2023-03-06T18:00:53.968Z,99366.22
2023-03-06T18:03:20.785Z,99369.00
2023-03-06T18:05:47.465Z,99372.63
2023-03-06T18:08:14.318Z,99372.63
2023-03-06T18:10:42.519Z,99372.63
2023-03-06T18:13:10.451Z,99371.75
2023-03-06T18:15:41.334Z,99377.94
2023-03-06T18:18:08.865Z,99372.50
2023-03-06T18:20:41.125Z,99366.44
2023-03-06T18:23:07.846Z,99366.59
2023-03-06T18:25:34.765Z,99376.50
2023-03-06T18:28:01.648Z,99365.22
2023-03-06T18:30:28.232Z,99367.91
2023-03-06T18:32:54.854Z,99370.69
2023-03-06T18:35:21.783Z,99359.06
2023-03-06T18:37:48.525Z,99361.75
2023-03-06T18:40:15.301Z,99360.03
2023-03-06T18:42:41.875Z,99361.97
2023-03-06T18:45:09.069Z,99370.81
2023-03-06T18:47:35.720Z,99372.88
2023-03-06T18:50:05.316Z,99375.66
2023-03-06T18:52:33.743Z,99377.34
2023-03-06T18:55:00.418Z,99379.16
2023-03-06T18:57:29.300Z,99377.72
2023-03-06T18:59:56.838Z,99383.03
2023-03-06T19:02:23.384Z,99377.84
2023-03-06T19:04:49.925Z,99387.50
2023-03-06T19:07:16.713Z,99392.63
2023-03-06T19:09:44.448Z,99389.09
2023-03-06T19:12:11.582Z,99381.97
2023-03-06T19:14:38.201Z,99384.00
2023-03-06T19:17:05.179Z,99375.16
2023-03-06T19:19:31.761Z,99364.25
2023-03-06T19:21:58.578Z,99359.91
2023-03-06T19:24:25.693Z,99374.09
2023-03-06T19:26:52.346Z,99369.84
2023-03-06T19:29:18.912Z,99360.16
2023-03-06T19:31:45.581Z,99350.50
2023-03-06T19:34:12.185Z,99363.41
2023-03-06T19:36:40.756Z,99359.19
2023-03-06T19:39:07.823Z,99358.47
2023-03-06T19:41:34.545Z,99355.16
2023-03-06T19:44:05.863Z,99363.63
2023-03-06T19:46:32.796Z,99362.81
2023-03-06T19:49:01.466Z,99373.56
2023-03-06T19:51:28.924Z,99376.22
2023-03-06T19:53:56.779Z,99379.16
2023-03-06T19:56:26.161Z,99368.59
2023-03-06T19:58:53.629Z,99359.03
2023-03-06T20:01:22.715Z,99345.94
2023-03-06T20:03:52.478Z,99345.13
2023-03-06T20:06:20.241Z,99347.19
2023-03-06T20:08:47.561Z,99347.28
2023-03-06T20:11:26.148Z,99356.34
2023-03-06T20:13:53.354Z,99352.34
2023-03-06T20:16:20.324Z,99355.97
2023-03-06T20:18:46.977Z,99360.22
2023-03-06T20:21:15.209Z,99360.31
2023-03-06T20:23:42.868Z,99356.72
2023-03-06T20:26:12.115Z,99355.13
2023-03-06T20:28:40.257Z,99353.66
2023-03-06T20:31:09.057Z,99355.81
2023-03-06T20:33:35.639Z,99355.81
2023-03-06T20:36:02.350Z,99353.28
2023-03-06T20:38:28.970Z,99359.47
2023-03-06T20:40:57.778Z,99366.72
2023-03-06T20:43:24.305Z,99359.81
2023-03-06T20:46:03.596Z,99360.66
2023-03-06T20:48:30.200Z,99367.50
2023-03-06T20:51:08.621Z,99368.38
2023-03-06T20:53:35.197Z,99371.13
2023-03-06T20:56:01.885Z,99367.75
2023-03-06T20:58:31.505Z,99369.56
2023-03-06T21:00:59.953Z,99369.91
2023-03-06T21:03:29.614Z,99369.28
2023-03-06T21:05:56.504Z,99374.72
2023-03-06T21:08:23.440Z,99374.47
2023-03-06T21:10:50.663Z,99372.00
2023-03-06T21:13:17.633Z,99375.03
2023-03-06T21:15:47.315Z,99370.66
2023-03-06T21:18:13.965Z,99371.16
2023-03-06T21:20:41.309Z,99380.72
2023-03-06T21:23:09.052Z,99378.06
2023-03-06T21:25:35.798Z,99371.66
2023-03-06T21:28:02.499Z,99371.56
2023-03-06T21:30:29.401Z,99376.00
2023-03-06T21:32:56.145Z,99369.25
2023-03-06T21:35:22.788Z,99372.97
2023-03-06T21:37:49.333Z,99370.53
2023-03-06T21:40:16.081Z,99377.28
2023-03-06T21:42:42.760Z,99372.81
2023-03-06T21:45:09.837Z,99381.25
2023-03-06T21:47:38.894Z,99377.94
2023-03-06T21:50:10.062Z,99369.97
2023-03-06T21:52:37.207Z,99361.72
2023-03-06T21:55:04.321Z,99366.75
2023-03-06T21:57:31.014Z,99365.16
2023-03-06T21:59:57.821Z,99369.88
2023-03-06T22:02:24.534Z,99361.69
2023-03-06T22:04:52.593Z,99376.28
2023-03-06T22:07:20.393Z,99378.19
2023-03-06T22:09:47.539Z,99370.34
2023-03-06T22:12:14.519Z,99372.88
2023-03-06T22:14:43.602Z,99373.72
2023-03-06T22:17:10.147Z,99370.00
2023-03-06T22:19:36.705Z,99369.03
2023-03-06T22:22:04.024Z,99368.31
2023-03-06T22:24:32.005Z,99365.66
2023-03-06T22:26:58.703Z,99366.50
2023-03-06T22:29:25.808Z,99365.75
2023-03-06T22:31:53.050Z,99361.28
2023-03-06T22:34:19.690Z,99361.28
2023-03-06T22:36:46.358Z,99355.97
2023-03-06T22:39:13.512Z,99355.03
2023-03-06T22:41:40.623Z,99366.72
2023-03-06T22:44:07.406Z,99368.50
2023-03-06T22:46:34.052Z,99369.38
2023-03-06T22:49:01.249Z,99372.03
2023-03-06T22:51:29.410Z,99368.41
2023-03-06T22:53:55.954Z,99366.50
2023-03-06T22:56:22.859Z,99375.31
2023-03-06T22:58:49.553Z,99381.47
2023-03-06T23:01:21.623Z,99374.34
2023-03-06T23:03:50.663Z,99377.84
2023-03-06T23:06:23.739Z,99378.72
2023-03-06T23:08:55.877Z,99384.13
2023-03-06T23:11:23.895Z,99375.53
2023-03-06T23:13:50.472Z,99375.75
2023-03-06T23:16:17.033Z,99372.13
2023-03-06T23:18:43.624Z,99364.41
2023-03-06T23:21:12.741Z,99370.66
2023-03-06T23:23:40.123Z,99368.22
2023-03-06T23:26:08.513Z,99363.97
2023-03-06T23:28:35.174Z,99366.00
2023-03-06T23:31:13.876Z,99365.38
2023-03-06T23:33:40.560Z,99363.88
2023-03-06T23:36:13.447Z,99372.09
2023-03-06T23:38:40.626Z,99369.72
2023-03-06T23:41:10.632Z,99369.09
2023-03-06T23:43:37.282Z,99366.56
2023-03-06T23:46:04.562Z,99368.28
2023-03-06T23:48:31.192Z,99364.75
2023-03-06T23:50:58.188Z,99366.69
2023-03-06T23:53:24.803Z,99361.47
2023-03-06T23:55:51.783Z,99364.22
2023-03-06T23:58:19.933Z,99368.38
